sensor_id;sensor_type;location;lat;lon;timestamp;noise_LAeq;noise_LA_min;noise_LA_max;noise_LA01;noise_LA95
67310;Laerm;65444;51.438;5.982;2023-02-01T00:00:02;35.44;33.54;37.20;;
67310;Laerm;65444;51.438;5.982;2023-02-01T00:00:15;40.68;34.26;51.81;;
67310;Laerm;65444;51.438;5.982;2023-02-01T00:00:25;43.58;32.58;56.83;;
67310;Laerm;65444;51.438;5.982;2023-02-01T00:00:36;34.47;32.33;39.32;;
67310;Laerm;65444;51.438;5.982;2023-02-01T00:00:46;34.45;31.45;40.78;;
67310;Laerm;65444;51.438;5.982;2023-02-01T00:00:56;33.48;31.42;36.67;;
67310;Laerm;65444;51.438;5.982;2023-02-01T00:01:09;34.77;32.74;41.19;;
67310;Laerm;65444;51.438;5.982;2023-02-01T00:01:20;44.93;32.52;57.68;;
67310;Laerm;65444;51.438;5.982;2023-02-01T00:01:33;38.26;32.83;50.79;;
67310;Laerm;65444;51.438;5.982;2023-02-01T00:01:46;36.73;32.67;46.69;;
67310;Laerm;65444;51.438;5.982;2023-02-01T00:01:57;33.65;31.49;35.51;;
67310;Laerm;65444;51.438;5.982;2023-02-01T00:02:08;33.66;31.13;39.69;;
67310;Laerm;65444;51.438;5.982;2023-02-01T00:02:19;33.43;31.56;36.19;;
67310;Laerm;65444;51.438;5.982;2023-02-01T00:02:29;33.76;31.94;37.83;;
67310;Laerm;65444;51.438;5.982;2023-02-01T00:02:40;33.56;30.73;39.04;;
67310;Laerm;65444;51.438;5.982;2023-02-01T00:02:50;32.91;30.60;38.13;;
67310;Laerm;65444;51.438;5.982;2023-02-01T00:03:01;33.32;30.69;38.09;;
67310;Laerm;65444;51.438;5.982;2023-02-01T00:03:13;36.06;31.43;47.21;;
67310;Laerm;65444;51.438;5.982;2023-02-01T00:03:24;34.31;31.64;45.00;;
67310;Laerm;65444;51.438;5.982;2023-02-01T00:03:35;36.20;32.99;40.36;;
67310;Laerm;65444;51.438;5.982;2023-02-01T00:03:45;37.97;34.07;46.70;;
67310;Laerm;65444;51.438;5.982;2023-02-01T00:03:58;37.21;33.10;47.46;;
67310;Laerm;65444;51.438;5.982;2023-02-01T00:04:09;44.31;32.77;57.80;;
67310;Laerm;65444;51.438;5.982;2023-02-01T00:04:25;35.43;32.50;45.71;;
67310;Laerm;65444;51.438;5.982;2023-02-01T00:04:43;37.86;30.49;49.70;;
67310;Laerm;65444;51.438;5.982;2023-02-01T00:04:56;34.17;32.14;36.37;;
67310;Laerm;65444;51.438;5.982;2023-02-01T00:05:07;35.51;32.29;45.63;;
67310;Laerm;65444;51.438;5.982;2023-02-01T00:05:39;33.38;30.92;41.99;;
67310;Laerm;65444;51.438;5.982;2023-02-01T00:05:56;32.93;31.13;35.89;;
67310;Laerm;65444;51.438;5.982;2023-02-01T00:06:13;35.96;31.64;46.05;;
67310;Laerm;65444;51.438;5.982;2023-02-01T00:06:23;47.82;34.57;60.18;;
67310;Laerm;65444;51.438;5.982;2023-02-01T00:06:33;51.70;33.35;67.55;;
67310;Laerm;65444;51.438;5.982;2023-02-01T00:06:46;45.39;32.85;59.38;;
67310;Laerm;65444;51.438;5.982;2023-02-01T00:06:58;38.16;31.98;47.49;;
67310;Laerm;65444;51.438;5.982;2023-02-01T00:07:09;35.65;31.66;46.60;;
67310;Laerm;65444;51.438;5.982;2023-02-01T00:07:19;36.74;31.60;46.32;;
67310;Laerm;65444;51.438;5.982;2023-02-01T00:07:40;33.83;32.22;35.53;;
67310;Laerm;65444;51.438;5.982;2023-02-01T00:07:59;37.82;31.75;55.62;;
67310;Laerm;65444;51.438;5.982;2023-02-01T00:08:10;36.08;32.17;46.36;;
67310;Laerm;65444;51.438;5.982;2023-02-01T00:08:20;33.23;31.06;36.51;;
67310;Laerm;65444;51.438;5.982;2023-02-01T00:08:33;36.09;32.43;44.70;;
67310;Laerm;65444;51.438;5.982;2023-02-01T00:09:07;40.97;32.29;60.60;;
67310;Laerm;65444;51.438;5.982;2023-02-01T00:09:18;34.29;30.82;39.98;;
67310;Laerm;65444;51.438;5.982;2023-02-01T00:09:31;40.12;34.07;51.11;;
67310;Laerm;65444;51.438;5.982;2023-02-01T00:09:42;37.48;32.95;51.22;;
67310;Laerm;65444;51.438;5.982;2023-02-01T00:09:52;34.71;32.16;43.73;;
67310;Laerm;65444;51.438;5.982;2023-02-01T00:10:03;36.90;32.01;51.84;;
67310;Laerm;65444;51.438;5.982;2023-02-01T00:10:13;34.25;31.73;38.45;;
67310;Laerm;65444;51.438;5.982;2023-02-01T00:10:30;37.42;33.21;44.04;;
67310;Laerm;65444;51.438;5.982;2023-02-01T00:10:43;34.47;31.86;37.98;;
67310;Laerm;65444;51.438;5.982;2023-02-01T00:11:02;32.66;30.82;40.43;;
67310;Laerm;65444;51.438;5.982;2023-02-01T00:11:13;44.47;31.06;60.65;;
67310;Laerm;65444;51.438;5.982;2023-02-01T00:11:24;33.28;30.44;41.24;;
67310;Laerm;65444;51.438;5.982;2023-02-01T00:11:34;38.47;32.63;52.48;;
67310;Laerm;65444;51.438;5.982;2023-02-01T00:11:45;34.43;32.01;43.10;;
67310;Laerm;65444;51.438;5.982;2023-02-01T00:11:55;46.90;32.64;59.82;;
67310;Laerm;65444;51.438;5.982;2023-02-01T00:12:10;34.61;31.88;45.16;;
67310;Laerm;65444;51.438;5.982;2023-02-01T00:12:23;36.09;31.49;46.41;;
67310;Laerm;65444;51.438;5.982;2023-02-01T00:12:33;33.71;30.37;41.20;;
67310;Laerm;65444;51.438;5.982;2023-02-01T00:12:43;32.05;30.58;34.85;;
67310;Laerm;65444;51.438;5.982;2023-02-01T00:12:53;32.70;30.78;37.99;;
67310;Laerm;65444;51.438;5.982;2023-02-01T00:13:04;32.35;30.22;39.20;;
67310;Laerm;65444;51.438;5.982;2023-02-01T00:13:14;32.28;30.19;39.76;;
67310;Laerm;65444;51.438;5.982;2023-02-01T00:13:24;34.27;30.73;44.96;;
67310;Laerm;65444;51.438;5.982;2023-02-01T00:13:35;34.00;30.82;40.68;;
67310;Laerm;65444;51.438;5.982;2023-02-01T00:13:50;36.42;30.87;49.82;;
67310;Laerm;65444;51.438;5.982;2023-02-01T00:14:01;36.52;30.87;47.24;;
67310;Laerm;65444;51.438;5.982;2023-02-01T00:14:11;39.17;29.88;49.54;;
67310;Laerm;65444;51.438;5.982;2023-02-01T00:14:22;32.12;29.53;38.70;;
67310;Laerm;65444;51.438;5.982;2023-02-01T00:14:32;34.80;30.09;50.49;;
67310;Laerm;65444;51.438;5.982;2023-02-01T00:14:48;34.13;30.61;46.15;;
67310;Laerm;65444;51.438;5.982;2023-02-01T00:14:58;32.61;30.24;41.39;;
67310;Laerm;65444;51.438;5.982;2023-02-01T00:15:08;32.30;29.94;35.63;;
67310;Laerm;65444;51.438;5.982;2023-02-01T00:15:22;34.57;31.32;45.48;;
67310;Laerm;65444;51.438;5.982;2023-02-01T00:15:36;34.92;31.57;44.29;;
67310;Laerm;65444;51.438;5.982;2023-02-01T00:15:46;36.31;31.68;45.07;;
67310;Laerm;65444;51.438;5.982;2023-02-01T00:16:03;34.70;29.82;44.23;;
67310;Laerm;65444;51.438;5.982;2023-02-01T00:16:14;33.65;30.70;41.64;;
67310;Laerm;65444;51.438;5.982;2023-02-01T00:17:18;31.66;29.19;38.86;;
67310;Laerm;65444;51.438;5.982;2023-02-01T00:17:34;33.29;29.64;45.52;;
67310;Laerm;65444;51.438;5.982;2023-02-01T00:17:54;32.07;28.90;42.42;;
67310;Laerm;65444;51.438;5.982;2023-02-01T00:18:13;33.42;30.34;36.42;;
67310;Laerm;65444;51.438;5.982;2023-02-01T00:18:40;33.49;30.83;36.93;;
67310;Laerm;65444;51.438;5.982;2023-02-01T00:18:51;33.33;31.29;35.97;;
67310;Laerm;65444;51.438;5.982;2023-02-01T00:19:13;41.08;32.08;58.17;;
67310;Laerm;65444;51.438;5.982;2023-02-01T00:19:29;37.15;31.37;50.78;;
67310;Laerm;65444;51.438;5.982;2023-02-01T00:19:46;32.76;30.76;40.63;;
67310;Laerm;65444;51.438;5.982;2023-02-01T00:20:09;32.75;30.09;42.43;;
67310;Laerm;65444;51.438;5.982;2023-02-01T00:22:26;35.37;29.85;49.47;;
67310;Laerm;65444;51.438;5.982;2023-02-01T00:22:36;39.95;31.05;52.74;;
67310;Laerm;65444;51.438;5.982;2023-02-01T00:22:46;43.84;33.18;59.55;;
67310;Laerm;65444;51.438;5.982;2023-02-01T00:23:08;41.37;32.57;57.05;;
67310;Laerm;65444;51.438;5.982;2023-02-01T00:23:36;36.88;31.26;47.58;;
67310;Laerm;65444;51.438;5.982;2023-02-01T00:24:19;32.97;29.97;40.87;;
67310;Laerm;65444;51.438;5.982;2023-02-01T00:24:39;32.14;30.29;36.98;;
67310;Laerm;65444;51.438;5.982;2023-02-01T00:24:52;34.86;30.76;47.27;;
67310;Laerm;65444;51.438;5.982;2023-02-01T00:25:13;41.29;31.94;56.99;;
67310;Laerm;65444;51.438;5.982;2023-02-01T00:25:50;34.28;29.96;51.70;;
67310;Laerm;65444;51.438;5.982;2023-02-01T00:26:32;32.14;28.85;43.55;;
67310;Laerm;65444;51.438;5.982;2023-02-01T00:26:46;34.02;28.78;46.72;;
67310;Laerm;65444;51.438;5.982;2023-02-01T00:27:02;30.42;28.21;34.04;;
67310;Laerm;65444;51.438;5.982;2023-02-01T00:27:15;31.11;29.52;37.32;;
67310;Laerm;65444;51.438;5.982;2023-02-01T00:27:59;30.98;29.02;39.15;;
67310;Laerm;65444;51.438;5.982;2023-02-01T00:28:22;36.17;29.63;53.38;;
67310;Laerm;65444;51.438;5.982;2023-02-01T00:28:47;31.42;29.19;38.68;;
67310;Laerm;65444;51.438;5.982;2023-02-01T00:28:58;43.16;30.19;57.45;;
67310;Laerm;65444;51.438;5.982;2023-02-01T00:29:26;32.69;29.00;47.45;;
67310;Laerm;65444;51.438;5.982;2023-02-01T00:29:44;32.21;29.23;49.25;;
67310;Laerm;65444;51.438;5.982;2023-02-01T00:29:55;31.15;28.95;37.69;;
67310;Laerm;65444;51.438;5.982;2023-02-01T00:30:11;32.28;29.95;39.51;;
67310;Laerm;65444;51.438;5.982;2023-02-01T00:30:23;31.96;29.39;42.13;;
67310;Laerm;65444;51.438;5.982;2023-02-01T00:30:37;31.62;29.20;37.14;;
67310;Laerm;65444;51.438;5.982;2023-02-01T00:31:00;31.10;29.32;36.70;;
67310;Laerm;65444;51.438;5.982;2023-02-01T00:31:16;33.76;29.04;46.99;;
67310;Laerm;65444;51.438;5.982;2023-02-01T00:31:40;31.61;29.08;38.83;;
67310;Laerm;65444;51.438;5.982;2023-02-01T00:31:59;30.40;28.52;39.73;;
67310;Laerm;65444;51.438;5.982;2023-02-01T00:32:12;30.38;28.90;33.34;;
67310;Laerm;65444;51.438;5.982;2023-02-01T00:32:28;30.67;28.53;36.03;;
67310;Laerm;65444;51.438;5.982;2023-02-01T00:32:44;30.46;28.74;33.20;;
67310;Laerm;65444;51.438;5.982;2023-02-01T00:33:03;33.44;29.03;43.90;;
67310;Laerm;65444;51.438;5.982;2023-02-01T00:34:06;31.24;28.23;43.35;;
67310;Laerm;65444;51.438;5.982;2023-02-01T00:34:37;30.27;27.97;36.48;;
67310;Laerm;65444;51.438;5.982;2023-02-01T00:34:57;30.02;28.33;33.25;;
67310;Laerm;65444;51.438;5.982;2023-02-01T00:35:09;30.54;28.84;31.96;;
67310;Laerm;65444;51.438;5.982;2023-02-01T00:35:25;30.54;28.82;35.63;;
67310;Laerm;65444;51.438;5.982;2023-02-01T00:36:08;30.23;28.12;35.42;;
67310;Laerm;65444;51.438;5.982;2023-02-01T00:36:30;33.97;28.84;46.26;;
67310;Laerm;65444;51.438;5.982;2023-02-01T00:36:50;38.16;29.57;50.94;;
67310;Laerm;65444;51.438;5.982;2023-02-01T00:37:01;31.06;29.14;35.93;;
67310;Laerm;65444;51.438;5.982;2023-02-01T00:37:14;30.66;28.30;34.55;;
67310;Laerm;65444;51.438;5.982;2023-02-01T00:37:32;30.56;28.39;34.50;;
67310;Laerm;65444;51.438;5.982;2023-02-01T00:37:56;30.36;28.04;36.75;;
67310;Laerm;65444;51.438;5.982;2023-02-01T00:38:20;30.49;28.52;34.02;;
67310;Laerm;65444;51.438;5.982;2023-02-01T00:38:36;30.56;28.83;36.51;;
67310;Laerm;65444;51.438;5.982;2023-02-01T00:39:18;30.50;28.42;38.16;;
67310;Laerm;65444;51.438;5.982;2023-02-01T00:40:05;31.44;28.99;38.77;;
67310;Laerm;65444;51.438;5.982;2023-02-01T00:40:40;31.66;29.86;36.29;;
67310;Laerm;65444;51.438;5.982;2023-02-01T00:41:06;31.28;29.34;35.76;;
67310;Laerm;65444;51.438;5.982;2023-02-01T00:41:18;31.60;29.19;38.06;;
67310;Laerm;65444;51.438;5.982;2023-02-01T00:41:32;33.58;30.02;44.42;;
67310;Laerm;65444;51.438;5.982;2023-02-01T00:41:45;34.68;29.31;43.88;;
67310;Laerm;65444;51.438;5.982;2023-02-01T00:41:55;31.49;29.20;37.85;;
67310;Laerm;65444;51.438;5.982;2023-02-01T00:42:08;31.48;29.64;34.92;;
67310;Laerm;65444;51.438;5.982;2023-02-01T00:42:27;31.39;28.84;41.02;;
67310;Laerm;65444;51.438;5.982;2023-02-01T00:42:37;31.20;29.63;35.54;;
67310;Laerm;65444;51.438;5.982;2023-02-01T00:42:47;30.85;28.81;35.60;;
67310;Laerm;65444;51.438;5.982;2023-02-01T00:43:12;30.90;29.07;37.43;;
67310;Laerm;65444;51.438;5.982;2023-02-01T00:43:22;30.21;28.78;31.95;;
67310;Laerm;65444;51.438;5.982;2023-02-01T00:43:33;30.80;28.93;33.93;;
67310;Laerm;65444;51.438;5.982;2023-02-01T00:43:43;31.51;29.25;36.81;;
67310;Laerm;65444;51.438;5.982;2023-02-01T00:44:03;30.66;28.71;36.95;;
67310;Laerm;65444;51.438;5.982;2023-02-01T00:44:22;31.34;29.23;36.46;;
67310;Laerm;65444;51.438;5.982;2023-02-01T00:44:33;41.16;29.57;55.63;;
67310;Laerm;65444;51.438;5.982;2023-02-01T00:44:58;35.73;29.84;50.81;;
67310;Laerm;65444;51.438;5.982;2023-02-01T00:45:09;32.13;29.93;36.95;;
67310;Laerm;65444;51.438;5.982;2023-02-01T00:45:22;31.77;29.11;42.25;;
67310;Laerm;65444;51.438;5.982;2023-02-01T00:45:35;31.26;29.43;35.23;;
67310;Laerm;65444;51.438;5.982;2023-02-01T00:45:46;31.08;29.19;36.01;;
67310;Laerm;65444;51.438;5.982;2023-02-01T00:46:18;31.56;29.14;41.56;;
67310;Laerm;65444;51.438;5.982;2023-02-01T00:46:27;31.62;29.21;37.62;;
67310;Laerm;65444;51.438;5.982;2023-02-01T00:46:38;31.90;29.43;40.14;;
67310;Laerm;65444;51.438;5.982;2023-02-01T00:46:48;30.29;28.88;31.43;;
67310;Laerm;65444;51.438;5.982;2023-02-01T00:47:07;30.85;29.38;33.47;;
67310;Laerm;65444;51.438;5.982;2023-02-01T00:47:17;37.68;30.81;50.87;;
67310;Laerm;65444;51.438;5.982;2023-02-01T00:47:27;33.46;29.58;42.73;;
67310;Laerm;65444;51.438;5.982;2023-02-01T00:47:39;30.95;29.24;34.81;;
67310;Laerm;65444;51.438;5.982;2023-02-01T00:47:49;32.08;29.11;36.32;;
67310;Laerm;65444;51.438;5.982;2023-02-01T00:48:00;38.00;30.94;44.32;;
67310;Laerm;65444;51.438;5.982;2023-02-01T00:48:18;41.92;33.36;48.09;;
67310;Laerm;65444;51.438;5.982;2023-02-01T00:48:29;33.52;30.76;42.36;;
67310;Laerm;65444;51.438;5.982;2023-02-01T00:48:42;31.99;29.99;35.05;;
67310;Laerm;65444;51.438;5.982;2023-02-01T00:48:59;32.03;29.54;41.26;;
67310;Laerm;65444;51.438;5.982;2023-02-01T00:49:12;31.86;29.87;34.62;;
67310;Laerm;65444;51.438;5.982;2023-02-01T00:49:24;32.09;29.66;35.79;;
67310;Laerm;65444;51.438;5.982;2023-02-01T00:49:35;33.97;31.05;43.69;;
67310;Laerm;65444;51.438;5.982;2023-02-01T00:49:45;32.84;29.47;44.45;;
67310;Laerm;65444;51.438;5.982;2023-02-01T00:49:58;32.31;30.41;35.40;;
67310;Laerm;65444;51.438;5.982;2023-02-01T00:50:08;32.36;29.42;37.09;;
67310;Laerm;65444;51.438;5.982;2023-02-01T00:50:19;31.80;29.68;38.12;;
67310;Laerm;65444;51.438;5.982;2023-02-01T00:50:29;31.44;29.85;33.57;;
67310;Laerm;65444;51.438;5.982;2023-02-01T00:50:42;31.52;29.57;34.06;;
67310;Laerm;65444;51.438;5.982;2023-02-01T00:50:53;31.11;29.56;34.28;;
67310;Laerm;65444;51.438;5.982;2023-02-01T00:51:04;31.64;29.79;36.57;;
67310;Laerm;65444;51.438;5.982;2023-02-01T00:51:16;33.48;29.94;41.55;;
67310;Laerm;65444;51.438;5.982;2023-02-01T00:51:32;33.99;30.01;45.90;;
67310;Laerm;65444;51.438;5.982;2023-02-01T00:51:45;32.09;29.65;43.14;;
67310;Laerm;65444;51.438;5.982;2023-02-01T00:51:58;31.18;29.69;33.56;;
67310;Laerm;65444;51.438;5.982;2023-02-01T00:52:14;31.95;30.53;34.30;;
67310;Laerm;65444;51.438;5.982;2023-02-01T00:52:27;34.62;30.69;48.36;;
67310;Laerm;65444;51.438;5.982;2023-02-01T00:52:38;33.21;30.09;39.22;;
67310;Laerm;65444;51.438;5.982;2023-02-01T00:52:53;33.57;30.79;39.48;;
67310;Laerm;65444;51.438;5.982;2023-02-01T00:53:03;33.25;30.67;42.78;;
67310;Laerm;65444;51.438;5.982;2023-02-01T00:53:13;32.99;30.93;36.96;;
67310;Laerm;65444;51.438;5.982;2023-02-01T00:53:24;32.98;31.13;36.70;;
67310;Laerm;65444;51.438;5.982;2023-02-01T00:53:34;32.90;30.99;39.90;;
67310;Laerm;65444;51.438;5.982;2023-02-01T00:53:47;33.10;30.61;40.07;;
67310;Laerm;65444;51.438;5.982;2023-02-01T00:54:00;32.68;30.17;40.29;;
67310;Laerm;65444;51.438;5.982;2023-02-01T00:54:13;32.63;30.33;36.94;;
67310;Laerm;65444;51.438;5.982;2023-02-01T00:54:33;32.19;30.10;34.35;;
67310;Laerm;65444;51.438;5.982;2023-02-01T00:54:51;32.52;30.10;37.29;;
67310;Laerm;65444;51.438;5.982;2023-02-01T00:55:07;32.95;30.17;36.14;;
67310;Laerm;65444;51.438;5.982;2023-02-01T00:55:17;32.25;30.07;36.60;;
67310;Laerm;65444;51.438;5.982;2023-02-01T00:55:28;33.61;30.82;37.77;;
67310;Laerm;65444;51.438;5.982;2023-02-01T00:55:41;35.95;32.01;44.87;;
67310;Laerm;65444;51.438;5.982;2023-02-01T00:55:54;32.93;30.65;39.09;;
67310;Laerm;65444;51.438;5.982;2023-02-01T00:56:05;32.43;30.72;34.64;;
67310;Laerm;65444;51.438;5.982;2023-02-01T00:56:15;32.61;31.02;35.90;;
67310;Laerm;65444;51.438;5.982;2023-02-01T00:56:26;32.21;30.74;35.67;;
67310;Laerm;65444;51.438;5.982;2023-02-01T00:56:42;39.14;31.10;61.23;;
67310;Laerm;65444;51.438;5.982;2023-02-01T00:57:02;36.66;32.85;44.68;;
67310;Laerm;65444;51.438;5.982;2023-02-01T00:57:19;38.60;31.89;53.85;;
67310;Laerm;65444;51.438;5.982;2023-02-01T00:57:29;34.71;31.28;41.43;;
67310;Laerm;65444;51.438;5.982;2023-02-01T00:57:50;34.10;31.72;45.36;;
67310;Laerm;65444;51.438;5.982;2023-02-01T00:58:09;34.00;31.05;43.61;;
67310;Laerm;65444;51.438;5.982;2023-02-01T00:58:20;34.43;31.61;41.17;;
67310;Laerm;65444;51.438;5.982;2023-02-01T00:58:30;33.08;30.85;36.90;;
67310;Laerm;65444;51.438;5.982;2023-02-01T00:58:41;32.69;30.73;35.57;;
67310;Laerm;65444;51.438;5.982;2023-02-01T00:59:00;32.38;30.20;36.28;;
67310;Laerm;65444;51.438;5.982;2023-02-01T00:59:31;33.60;31.42;38.14;;
67310;Laerm;65444;51.438;5.982;2023-02-01T00:59:45;35.29;31.99;44.51;;
67310;Laerm;65444;51.438;5.982;2023-02-01T00:59:55;41.70;32.29;56.62;;
67310;Laerm;65444;51.438;5.982;2023-02-01T01:00:05;35.46;32.51;42.58;;
67310;Laerm;65444;51.438;5.982;2023-02-01T01:00:19;38.48;32.49;50.50;;
67310;Laerm;65444;51.438;5.982;2023-02-01T01:00:29;34.77;33.18;42.59;;
67310;Laerm;65444;51.438;5.982;2023-02-01T01:00:42;34.23;32.03;38.58;;
67310;Laerm;65444;51.438;5.982;2023-02-01T01:01:11;33.15;31.02;38.87;;
67310;Laerm;65444;51.438;5.982;2023-02-01T01:01:23;34.75;31.16;43.49;;
67310;Laerm;65444;51.438;5.982;2023-02-01T01:01:40;34.35;32.39;36.24;;
67310;Laerm;65444;51.438;5.982;2023-02-01T01:01:53;32.74;30.93;36.20;;
67310;Laerm;65444;51.438;5.982;2023-02-01T01:02:09;32.98;31.24;34.35;;
67310;Laerm;65444;51.438;5.982;2023-02-01T01:02:26;32.95;31.07;37.00;;
67310;Laerm;65444;51.438;5.982;2023-02-01T01:04:02;36.01;31.01;47.71;;
67310;Laerm;65444;51.438;5.982;2023-02-01T01:04:42;34.25;30.54;45.51;;
67310;Laerm;65444;51.438;5.982;2023-02-01T01:04:53;32.23;30.10;37.60;;
67310;Laerm;65444;51.438;5.982;2023-02-01T01:05:03;31.86;30.33;34.06;;
67310;Laerm;65444;51.438;5.982;2023-02-01T01:05:13;32.10;30.16;34.71;;
67310;Laerm;65444;51.438;5.982;2023-02-01T01:05:24;31.88;29.83;34.54;;
67310;Laerm;65444;51.438;5.982;2023-02-01T01:05:39;32.18;30.65;34.14;;
67310;Laerm;65444;51.438;5.982;2023-02-01T01:05:50;32.04;30.25;34.01;;
67310;Laerm;65444;51.438;5.982;2023-02-01T01:06:02;33.11;31.16;38.08;;
67310;Laerm;65444;51.438;5.982;2023-02-01T01:06:16;32.90;30.73;39.57;;
67310;Laerm;65444;51.438;5.982;2023-02-01T01:06:28;32.58;30.56;39.48;;
67310;Laerm;65444;51.438;5.982;2023-02-01T01:06:41;33.43;31.31;41.54;;
67310;Laerm;65444;51.438;5.982;2023-02-01T01:06:51;33.09;31.28;38.04;;
67310;Laerm;65444;51.438;5.982;2023-02-01T01:07:05;35.10;31.01;44.83;;
67310;Laerm;65444;51.438;5.982;2023-02-01T01:07:16;37.78;31.40;49.14;;
67310;Laerm;65444;51.438;5.982;2023-02-01T01:07:29;33.08;30.96;40.04;;
67310;Laerm;65444;51.438;5.982;2023-02-01T01:07:39;32.45;30.81;35.65;;
67310;Laerm;65444;51.438;5.982;2023-02-01T01:07:54;33.84;30.65;43.35;;
67310;Laerm;65444;51.438;5.982;2023-02-01T01:08:13;33.57;30.60;40.52;;
67310;Laerm;65444;51.438;5.982;2023-02-01T01:08:24;39.90;30.95;60.74;;
67310;Laerm;65444;51.438;5.982;2023-02-01T01:08:35;36.61;30.87;49.02;;
67310;Laerm;65444;51.438;5.982;2023-02-01T01:08:45;32.72;30.91;37.59;;
67310;Laerm;65444;51.438;5.982;2023-02-01T01:08:56;32.68;31.00;38.29;;
67310;Laerm;65444;51.438;5.982;2023-02-01T01:09:07;33.16;30.96;44.66;;
67310;Laerm;65444;51.438;5.982;2023-02-01T01:09:25;31.89;30.47;35.45;;
67310;Laerm;65444;51.438;5.982;2023-02-01T01:09:35;32.45;30.50;37.03;;
67310;Laerm;65444;51.438;5.982;2023-02-01T01:09:50;32.59;30.53;38.24;;
67310;Laerm;65444;51.438;5.982;2023-02-01T01:10:02;32.55;30.99;34.65;;
67310;Laerm;65444;51.438;5.982;2023-02-01T01:10:21;33.50;30.90;41.96;;
67310;Laerm;65444;51.438;5.982;2023-02-01T01:10:37;33.08;30.99;40.32;;
67310;Laerm;65444;51.438;5.982;2023-02-01T01:10:53;34.45;30.73;46.53;;
67310;Laerm;65444;51.438;5.982;2023-02-01T01:11:39;35.31;30.77;46.89;;
67310;Laerm;65444;51.438;5.982;2023-02-01T01:12:09;35.67;31.17;50.72;;
67310;Laerm;65444;51.438;5.982;2023-02-01T01:12:19;41.55;31.04;62.53;;
67310;Laerm;65444;51.438;5.982;2023-02-01T01:12:33;35.49;31.61;45.59;;
67310;Laerm;65444;51.438;5.982;2023-02-01T01:12:48;34.05;31.09;44.34;;
67310;Laerm;65444;51.438;5.982;2023-02-01T01:13:04;33.05;30.95;40.42;;
67310;Laerm;65444;51.438;5.982;2023-02-01T01:13:30;33.26;30.30;44.92;;
67310;Laerm;65444;51.438;5.982;2023-02-01T01:13:53;32.42;30.28;37.66;;
67310;Laerm;65444;51.438;5.982;2023-02-01T01:14:07;33.03;30.60;39.25;;
67310;Laerm;65444;51.438;5.982;2023-02-01T01:14:17;34.66;31.63;43.89;;
67310;Laerm;65444;51.438;5.982;2023-02-01T01:14:28;36.25;31.74;51.71;;
67310;Laerm;65444;51.438;5.982;2023-02-01T01:14:39;32.97;30.49;39.03;;
67310;Laerm;65444;51.438;5.982;2023-02-01T01:14:49;32.56;30.98;39.11;;
67310;Laerm;65444;51.438;5.982;2023-02-01T01:14:59;33.46;31.16;38.93;;
67310;Laerm;65444;51.438;5.982;2023-02-01T01:15:13;32.51;30.74;38.58;;
67310;Laerm;65444;51.438;5.982;2023-02-01T01:15:28;33.08;30.58;35.70;;
67310;Laerm;65444;51.438;5.982;2023-02-01T01:15:39;33.79;30.99;39.37;;
67310;Laerm;65444;51.438;5.982;2023-02-01T01:15:53;32.38;30.74;33.82;;
67310;Laerm;65444;51.438;5.982;2023-02-01T01:16:04;32.23;30.78;35.66;;
67310;Laerm;65444;51.438;5.982;2023-02-01T01:16:18;34.06;31.70;43.98;;
67310;Laerm;65444;51.438;5.982;2023-02-01T01:16:32;37.65;32.42;52.28;;
67310;Laerm;65444;51.438;5.982;2023-02-01T01:16:47;33.74;30.67;43.56;;
67310;Laerm;65444;51.438;5.982;2023-02-01T01:17:00;33.69;30.87;41.08;;
67310;Laerm;65444;51.438;5.982;2023-02-01T01:17:10;32.82;30.96;35.55;;
67310;Laerm;65444;51.438;5.982;2023-02-01T01:17:22;33.68;31.11;35.68;;
67310;Laerm;65444;51.438;5.982;2023-02-01T01:17:33;41.29;33.10;54.23;;
67310;Laerm;65444;51.438;5.982;2023-02-01T01:17:58;35.15;32.51;41.97;;
67310;Laerm;65444;51.438;5.982;2023-02-01T01:18:51;33.38;29.76;52.46;;
67310;Laerm;65444;51.438;5.982;2023-02-01T01:19:05;32.37;29.83;42.52;;
67310;Laerm;65444;51.438;5.982;2023-02-01T01:19:24;33.03;30.04;40.49;;
67310;Laerm;65444;51.438;5.982;2023-02-01T01:20:10;33.50;30.21;44.97;;
67310;Laerm;65444;51.438;5.982;2023-02-01T01:20:21;32.40;30.35;35.35;;
67310;Laerm;65444;51.438;5.982;2023-02-01T01:20:33;32.03;30.28;36.42;;
67310;Laerm;65444;51.438;5.982;2023-02-01T01:20:53;32.58;30.37;39.26;;
67310;Laerm;65444;51.438;5.982;2023-02-01T01:21:59;32.34;29.39;44.35;;
67310;Laerm;65444;51.438;5.982;2023-02-01T01:22:31;40.54;30.81;59.34;;
67310;Laerm;65444;51.438;5.982;2023-02-01T01:23:01;32.85;30.56;36.76;;
67310;Laerm;65444;51.438;5.982;2023-02-01T01:23:11;34.38;31.92;43.05;;
67310;Laerm;65444;51.438;5.982;2023-02-01T01:24:10;33.16;30.31;47.28;;
67310;Laerm;65444;51.438;5.982;2023-02-01T01:24:26;33.35;31.07;41.78;;
67310;Laerm;65444;51.438;5.982;2023-02-01T01:24:39;32.49;30.53;36.38;;
67310;Laerm;65444;51.438;5.982;2023-02-01T01:24:57;32.37;30.22;39.06;;
67310;Laerm;65444;51.438;5.982;2023-02-01T01:25:10;33.26;30.62;36.54;;
67310;Laerm;65444;51.438;5.982;2023-02-01T01:25:23;35.27;31.96;43.48;;
67310;Laerm;65444;51.438;5.982;2023-02-01T01:25:39;34.05;31.41;43.69;;
67310;Laerm;65444;51.438;5.982;2023-02-01T01:25:51;32.68;30.30;42.38;;
67310;Laerm;65444;51.438;5.982;2023-02-01T01:26:11;32.74;30.66;38.15;;
67310;Laerm;65444;51.438;5.982;2023-02-01T01:26:24;32.96;30.01;46.59;;
67310;Laerm;65444;51.438;5.982;2023-02-01T01:26:34;32.92;31.05;36.14;;
67310;Laerm;65444;51.438;5.982;2023-02-01T01:26:45;37.73;32.73;46.63;;
67310;Laerm;65444;51.438;5.982;2023-02-01T01:26:55;43.89;33.74;61.19;;
67310;Laerm;65444;51.438;5.982;2023-02-01T01:27:05;42.49;34.09;56.90;;
67310;Laerm;65444;51.438;5.982;2023-02-01T01:27:21;36.32;32.24;44.89;;
67310;Laerm;65444;51.438;5.982;2023-02-01T01:27:34;45.68;33.52;62.49;;
67310;Laerm;65444;51.438;5.982;2023-02-01T01:27:44;35.98;32.30;50.17;;
67310;Laerm;65444;51.438;5.982;2023-02-01T01:27:54;42.99;32.82;60.51;;
67310;Laerm;65444;51.438;5.982;2023-02-01T01:28:07;54.78;38.42;69.91;;
67310;Laerm;65444;51.438;5.982;2023-02-01T01:28:23;44.73;34.52;57.71;;
67310;Laerm;65444;51.438;5.982;2023-02-01T01:28:38;34.59;31.36;38.21;;
67310;Laerm;65444;51.438;5.982;2023-02-01T01:28:48;32.95;30.87;39.56;;
67310;Laerm;65444;51.438;5.982;2023-02-01T01:29:02;33.07;30.78;41.35;;
67310;Laerm;65444;51.438;5.982;2023-02-01T01:29:12;32.30;30.40;39.23;;
67310;Laerm;65444;51.438;5.982;2023-02-01T01:29:25;31.85;29.87;36.04;;
67310;Laerm;65444;51.438;5.982;2023-02-01T01:29:39;31.87;29.86;37.52;;
67310;Laerm;65444;51.438;5.982;2023-02-01T01:29:58;34.66;29.74;48.45;;
67310;Laerm;65444;51.438;5.982;2023-02-01T01:30:43;32.97;29.44;49.47;;
67310;Laerm;65444;51.438;5.982;2023-02-01T01:30:58;33.38;30.65;37.15;;
67310;Laerm;65444;51.438;5.982;2023-02-01T01:31:09;35.98;30.77;46.22;;
67310;Laerm;65444;51.438;5.982;2023-02-01T01:31:32;31.91;30.14;35.97;;
67310;Laerm;65444;51.438;5.982;2023-02-01T01:31:42;31.98;29.51;38.40;;
67310;Laerm;65444;51.438;5.982;2023-02-01T01:31:58;31.03;29.30;33.06;;
67310;Laerm;65444;51.438;5.982;2023-02-01T01:32:26;32.17;29.86;43.34;;
67310;Laerm;65444;51.438;5.982;2023-02-01T01:32:43;32.32;30.04;40.15;;
67310;Laerm;65444;51.438;5.982;2023-02-01T01:32:55;38.34;30.70;52.68;;